Time;durP1;ratioP1;P1;durP2;ratioP2;P2;SDS_P1;SDS_P2;PMS_P1;PMS_P2;Temp;Humidity;BMP_temperature;BMP_pressure;BME280_temperature;BME280_humidity;BME280_pressure;Samples;Min_cycle;Max_cycle;Signal;HPM_P1;HPM_P2
2023/01/23 00:01:17;;;;;;;19.40;11.38;;;2.20;99.90;;;;;;5020483;28;20487;-38
2023/01/23 00:03:43;;;;;;;16.58;10.93;;;2.20;99.90;;;;;;5012348;28;20065;-40
2023/01/23 00:06:14;;;;;;;18.17;10.55;;;2.20;99.90;;;;;;5013974;28;20061;-40
2023/01/23 00:08:41;;;;;;;20.48;12.20;;;2.10;99.90;;;;;;5019054;28;20056;-44
2023/01/23 00:11:13;;;;;;;17.60;11.25;;;2.10;99.90;;;;;;5012972;28;20034;-39
2023/01/23 00:13:39;;;;;;;19.63;11.23;;;2.20;99.90;;;;;;5015850;28;20034;-39
2023/01/23 00:16:19;;;;;;;18.83;11.40;;;2.20;99.90;;;;;;5020157;28;20049;-40
2023/01/23 00:18:46;;;;;;;19.67;11.85;;;2.20;99.90;;;;;;5020214;28;20038;-40
2023/01/23 00:21:14;;;;;;;18.80;11.85;;;2.20;99.90;;;;;;5016199;28;20038;-40
2023/01/23 00:23:45;;;;;;;16.70;10.65;;;2.20;99.90;;;;;;5031395;28;20037;-41
2023/01/23 00:26:14;;;;;;;18.75;10.95;;;2.20;99.90;;;;;;5021125;28;20069;-38
2023/01/23 00:28:41;;;;;;;18.25;11.20;;;2.20;99.90;;;;;;5021127;28;20112;-36
2023/01/23 00:31:16;;;;;;;17.40;10.88;;;2.20;99.90;;;;;;5021431;28;20035;-37
2023/01/23 00:33:43;;;;;;;18.17;10.85;;;2.20;99.90;;;;;;5020673;28;20044;-37
2023/01/23 00:36:10;;;;;;;20.27;11.65;;;2.20;99.90;;;;;;5019973;28;20041;-38
2023/01/23 00:38:36;;;;;;;18.98;11.98;;;2.20;99.90;;;;;;5020424;28;20120;-37
2023/01/23 00:41:02;;;;;;;16.27;11.32;;;2.20;99.90;;;;;;5020598;28;20076;-37
2023/01/23 00:43:29;;;;;;;20.42;11.57;;;2.20;99.90;;;;;;5020686;28;20034;-37
2023/01/23 00:45:55;;;;;;;16.58;10.55;;;2.20;99.90;;;;;;5020220;28;20095;-36
2023/01/23 00:48:21;;;;;;;18.55;11.18;;;2.20;99.90;;;;;;5020520;28;20037;-36
2023/01/23 00:50:47;;;;;;;20.73;11.50;;;2.20;99.90;;;;;;5023589;28;20121;-37
2023/01/23 00:53:13;;;;;;;17.63;11.40;;;2.20;99.90;;;;;;5019518;28;20037;-36
2023/01/23 00:55:39;;;;;;;18.92;11.00;;;2.20;99.90;;;;;;5020296;28;20033;-38
2023/01/23 00:58:05;;;;;;;20.75;11.60;;;2.20;99.90;;;;;;5020289;28;20039;-37
2023/01/23 01:00:31;;;;;;;15.68;10.88;;;2.20;99.90;;;;;;5020506;28;20037;-37
2023/01/23 01:02:57;;;;;;;15.30;10.40;;;2.30;99.90;;;;;;5003749;28;20111;-37
2023/01/23 01:05:23;;;;;;;17.75;11.85;;;2.30;99.90;;;;;;5053673;28;20037;-37
2023/01/23 01:07:48;;;;;;;16.10;10.88;;;2.30;99.90;;;;;;5039971;28;20044;-37
2023/01/23 01:10:14;;;;;;;19.90;12.05;;;2.30;99.90;;;;;;5023720;28;20048;-37
2023/01/23 01:12:41;;;;;;;19.15;11.52;;;2.20;99.90;;;;;;5020303;28;20368;-37
2023/01/23 01:15:08;;;;;;;18.67;11.30;;;2.30;99.90;;;;;;5020342;28;20521;-37
2023/01/23 01:17:34;;;;;;;16.80;11.73;;;2.20;99.90;;;;;;5020095;28;20493;-36
2023/01/23 01:20:00;;;;;;;16.10;11.40;;;2.30;99.90;;;;;;5034107;28;20124;-37
2023/01/23 01:22:26;;;;;;;20.38;11.52;;;2.20;99.90;;;;;;5018783;28;20507;-36
2023/01/23 01:24:51;;;;;;;19.83;10.90;;;2.20;99.90;;;;;;5016899;28;20084;-37
2023/01/23 01:27:17;;;;;;;17.00;11.32;;;2.30;99.90;;;;;;5016766;28;20037;-37
2023/01/23 01:29:43;;;;;;;19.92;12.02;;;2.20;99.90;;;;;;5022203;28;20420;-37
2023/01/23 01:32:08;;;;;;;15.65;11.20;;;2.20;99.90;;;;;;5016803;28;20865;-37
2023/01/23 01:34:34;;;;;;;17.20;11.50;;;2.20;99.90;;;;;;5034458;28;20449;-37
2023/01/23 01:37:00;;;;;;;15.70;11.25;;;2.30;99.90;;;;;;5016975;28;20045;-37
2023/01/23 01:39:26;;;;;;;17.65;11.48;;;2.30;99.90;;;;;;5017478;28;20087;-42
2023/01/23 01:41:52;;;;;;;16.88;11.95;;;2.20;99.90;;;;;;5020145;28;20120;-40
2023/01/23 01:44:22;;;;;;;16.65;11.68;;;2.30;99.90;;;;;;5016386;28;20041;-40
2023/01/23 01:46:49;;;;;;;18.05;11.80;;;2.20;99.90;;;;;;5027036;28;20034;-40
2023/01/23 01:49:36;;;;;;;20.35;12.25;;;2.30;99.90;;;;;;4999593;28;20041;-40
2023/01/23 01:52:09;;;;;;;17.52;11.90;;;2.30;99.90;;;;;;5009797;28;20096;-40
2023/01/23 01:54:40;;;;;;;18.63;11.27;;;2.30;99.90;;;;;;5009283;28;20037;-40
2023/01/23 01:57:17;;;;;;;18.20;12.00;;;2.30;99.90;;;;;;5009451;28;20052;-40
2023/01/23 01:59:57;;;;;;;21.20;12.40;;;2.30;99.90;;;;;;5023249;28;20046;-42
2023/01/23 02:02:31;;;;;;;20.98;12.00;;;2.30;99.90;;;;;;5004027;28;20045;-40
2023/01/23 02:05:10;;;;;;;19.38;12.18;;;2.30;99.90;;;;;;5035656;28;20073;-43
2023/01/23 02:07:56;;;;;;;15.40;11.77;;;2.30;99.90;;;;;;4999494;28;20042;-40
2023/01/23 02:10:22;;;;;;;17.02;12.15;;;2.30;99.90;;;;;;5015141;28;20034;-40
2023/01/23 02:12:50;;;;;;;16.65;11.52;;;2.30;99.90;;;;;;5009852;28;20087;-40
2023/01/23 02:15:18;;;;;;;18.52;12.13;;;2.30;99.90;;;;;;4998987;28;20049;-40
2023/01/23 02:17:46;;;;;;;22.20;13.25;;;2.30;99.90;;;;;;5010852;28;20092;-40
2023/01/23 02:20:19;;;;;;;17.05;11.65;;;2.30;99.90;;;;;;5008434;28;20080;-40
2023/01/23 02:23:30;;;;;;;18.42;11.18;;;2.30;99.90;;;;;;5013283;28;20132;-40
2023/01/23 02:26:02;;;;;;;19.27;12.80;;;2.30;99.90;;;;;;4971057;28;20046;-41
2023/01/23 02:28:38;;;;;;;16.83;11.50;;;2.30;99.90;;;;;;5012188;28;20379;-41
2023/01/23 02:31:05;;;;;;;18.85;12.82;;;2.30;99.90;;;;;;5007202;28;20155;-40
2023/01/23 02:33:30;;;;;;;21.33;13.18;;;2.30;99.90;;;;;;5009669;28;20033;-40
2023/01/23 02:36:01;;;;;;;20.98;11.85;;;2.30;99.90;;;;;;4997959;28;20132;-40
2023/01/23 02:38:31;;;;;;;19.38;11.70;;;2.30;99.90;;;;;;5011073;28;20037;-40
2023/01/23 02:41:00;;;;;;;19.38;11.35;;;2.40;99.90;;;;;;5015489;28;20037;-40
2023/01/23 02:43:33;;;;;;;18.05;11.70;;;2.30;99.90;;;;;;5027838;28;20128;-40
2023/01/23 02:46:10;;;;;;;20.63;11.95;;;2.40;99.90;;;;;;5023765;28;20076;-39
2023/01/23 02:48:38;;;;;;;20.40;12.45;;;2.30;99.90;;;;;;5010140;28;20044;-39
2023/01/23 02:51:05;;;;;;;17.92;11.40;;;2.30;99.90;;;;;;4998435;28;20410;-42
2023/01/23 02:53:31;;;;;;;20.77;12.52;;;2.30;99.90;;;;;;5030005;28;20044;-39
2023/01/23 02:55:59;;;;;;;18.88;11.68;;;2.40;99.90;;;;;;5013806;28;20041;-39
2023/01/23 03:01:09;;;;;;;20.42;11.38;;;2.40;99.90;;;;;;5023547;28;20056;-40
2023/01/23 03:03:35;;;;;;;20.55;11.73;;;2.40;99.90;;;;;;5008861;28;20033;-40
2023/01/23 03:06:04;;;;;;;20.38;11.73;;;2.40;99.90;;;;;;5009090;28;20044;-38
2023/01/23 03:08:35;;;;;;;17.00;11.35;;;2.40;99.90;;;;;;5006204;28;20061;-38
2023/01/23 03:11:02;;;;;;;22.05;12.23;;;2.40;99.90;;;;;;5015271;28;20045;-41
2023/01/23 03:13:28;;;;;;;20.92;11.73;;;2.30;99.90;;;;;;5009593;28;20469;-36
2023/01/23 03:15:58;;;;;;;21.52;12.07;;;2.40;99.90;;;;;;5031399;28;20041;-36
2023/01/23 03:18:26;;;;;;;19.33;11.27;;;2.40;99.90;;;;;;5004065;28;20038;-36
2023/01/23 03:20:52;;;;;;;18.88;12.15;;;2.40;99.90;;;;;;5017066;28;20120;-36
2023/01/23 03:23:18;;;;;;;18.33;12.30;;;2.40;99.90;;;;;;5010224;28;20116;-36
2023/01/23 03:25:45;;;;;;;21.63;12.23;;;2.40;99.90;;;;;;5023135;28;20427;-36
2023/01/23 03:30:12;;;;;;;17.85;11.65;;;2.40;99.90;;;;;;5030529;28;20037;-36
2023/01/23 03:30:56;;;;;;;18.50;12.23;;;2.40;99.90;;;;;;5022048;28;20115;-36
2023/01/23 03:33:22;;;;;;;18.65;12.27;;;2.40;99.90;;;;;;4998108;28;20125;-36
2023/01/23 03:35:48;;;;;;;18.17;12.05;;;2.40;99.90;;;;;;5007343;28;20552;-37
2023/01/23 03:38:16;;;;;;;16.63;11.85;;;2.40;99.90;;;;;;5056986;23;20413;-36
2023/01/23 03:43:30;;;;;;;17.50;12.50;;;2.40;99.90;;;;;;5051681;28;20058;-36
2023/01/23 03:45:57;;;;;;;25.00;12.30;;;2.40;99.90;;;;;;5046643;28;20064;-37
2023/01/23 03:48:22;;;;;;;20.48;12.70;;;2.40;99.90;;;;;;5066414;28;20036;-37
2023/01/23 03:50:48;;;;;;;21.88;13.23;;;2.40;99.90;;;;;;5052847;28;20040;-37
2023/01/23 03:53:14;;;;;;;21.55;12.70;;;2.40;99.90;;;;;;5056703;28;20047;-37
2023/01/23 03:55:39;;;;;;;21.52;12.38;;;2.40;99.90;;;;;;5046500;28;20041;-37
2023/01/23 04:00:33;;;;;;;18.80;11.85;;;2.40;99.90;;;;;;5095281;28;20040;-38
2023/01/23 04:02:59;;;;;;;22.08;13.30;;;2.40;99.90;;;;;;5082488;28;20381;-36
2023/01/23 04:05:24;;;;;;;21.67;12.10;;;2.30;99.90;;;;;;5057202;28;20032;-35
2023/01/23 04:07:50;;;;;;;21.38;12.85;;;2.40;99.90;;;;;;5054584;28;20037;-36
2023/01/23 04:10:16;;;;;;;21.02;12.57;;;2.40;99.90;;;;;;5053847;28;20037;-35
2023/01/23 04:12:42;;;;;;;24.02;13.27;;;2.40;99.90;;;;;;5052975;28;20067;-36
2023/01/23 04:15:09;;;;;;;22.63;12.45;;;2.40;99.90;;;;;;5057410;28;20047;-35
2023/01/23 04:17:34;;;;;;;18.15;11.73;;;2.30;99.90;;;;;;5047783;28;20037;-36
2023/01/23 04:20:00;;;;;;;20.13;12.73;;;2.40;99.90;;;;;;5053733;28;20393;-36
2023/01/23 04:22:26;;;;;;;22.02;13.55;;;2.40;99.90;;;;;;5053085;28;20036;-35
2023/01/23 04:24:52;;;;;;;20.98;12.65;;;2.40;99.90;;;;;;5054524;28;20118;-36
2023/01/23 04:27:18;;;;;;;19.35;12.25;;;2.40;99.90;;;;;;5053410;28;20052;-36
2023/01/23 04:29:46;;;;;;;21.73;13.68;;;2.40;99.90;;;;;;5036295;28;20040;-36
2023/01/23 04:32:12;;;;;;;20.10;12.48;;;2.40;99.90;;;;;;5052251;28;20508;-38
2023/01/23 04:34:38;;;;;;;22.20;13.25;;;2.40;99.90;;;;;;5052903;28;20115;-39
2023/01/23 04:37:04;;;;;;;18.05;12.85;;;2.40;99.90;;;;;;5054282;28;20037;-38
2023/01/23 04:39:31;;;;;;;23.25;13.07;;;2.30;99.90;;;;;;5053589;28;20068;-38
2023/01/23 04:41:57;;;;;;;21.70;13.98;;;2.40;99.90;;;;;;5052891;28;20036;-38
2023/01/23 04:44:23;;;;;;;18.05;13.02;;;2.40;99.90;;;;;;5053406;28;20036;-38
2023/01/23 04:46:52;;;;;;;22.75;13.93;;;2.30;99.90;;;;;;5036595;28;20055;-39
2023/01/23 04:49:18;;;;;;;17.50;12.27;;;2.30;99.90;;;;;;5051298;28;20040;-38
2023/01/23 04:51:45;;;;;;;20.15;12.43;;;2.30;99.90;;;;;;5055129;28;20095;-38
2023/01/23 04:54:11;;;;;;;19.52;12.48;;;2.30;99.90;;;;;;5054770;28;20032;-39
2023/01/23 04:56:37;;;;;;;19.50;12.70;;;2.40;99.90;;;;;;5053169;28;20042;-38
2023/01/23 04:59:03;;;;;;;23.23;14.23;;;2.30;99.90;;;;;;5055162;28;20111;-38
2023/01/23 05:01:28;;;;;;;21.58;13.77;;;2.30;99.90;;;;;;5056320;28;20033;-38
2023/01/23 05:03:54;;;;;;;20.30;13.05;;;2.30;99.90;;;;;;5057372;28;20370;-39
2023/01/23 05:06:20;;;;;;;21.20;13.88;;;2.30;99.90;;;;;;5057454;28;20040;-39
2023/01/23 05:08:45;;;;;;;21.08;13.15;;;2.30;99.90;;;;;;5059923;28;20033;-39
2023/01/23 05:11:12;;;;;;;21.10;13.25;;;2.30;99.90;;;;;;5056488;28;20107;-38
2023/01/23 05:13:37;;;;;;;25.38;13.82;;;2.30;99.90;;;;;;5057704;28;20132;-38
2023/01/23 05:16:03;;;;;;;22.17;13.13;;;2.30;99.90;;;;;;5057801;28;20119;-38
2023/01/23 05:18:29;;;;;;;20.27;13.05;;;2.30;99.90;;;;;;5061773;28;20040;-40
2023/01/23 05:20:55;;;;;;;21.13;13.45;;;2.30;99.90;;;;;;5056509;28;20040;-38
2023/01/23 05:23:20;;;;;;;22.67;13.80;;;2.30;99.90;;;;;;5060984;28;20039;-37
2023/01/23 05:25:46;;;;;;;19.92;13.25;;;2.30;99.90;;;;;;5056240;28;20075;-38
2023/01/23 05:28:12;;;;;;;24.48;13.70;;;2.30;99.90;;;;;;5059752;28;20096;-37
2023/01/23 05:30:38;;;;;;;23.23;13.90;;;2.30;99.90;;;;;;5056138;28;20032;-38
2023/01/23 05:33:04;;;;;;;21.38;14.00;;;2.30;99.90;;;;;;5057127;28;20071;-38
2023/01/23 05:35:30;;;;;;;19.08;13.25;;;2.30;99.90;;;;;;5056203;28;20029;-38
2023/01/23 05:37:55;;;;;;;22.45;13.65;;;2.30;99.90;;;;;;5057199;28;20151;-38
2023/01/23 05:40:22;;;;;;;20.83;13.25;;;2.30;99.90;;;;;;5060709;28;20054;-38
2023/01/23 05:42:48;;;;;;;20.25;12.80;;;2.30;99.90;;;;;;5052162;28;20047;-38
2023/01/23 05:45:14;;;;;;;21.13;13.18;;;2.30;99.90;;;;;;5079989;28;20032;-38
2023/01/23 05:47:40;;;;;;;20.05;13.60;;;2.30;99.90;;;;;;5055951;28;20086;-38
2023/01/23 05:50:08;;;;;;;23.50;14.57;;;2.30;99.90;;;;;;5055336;28;20044;-39
2023/01/23 05:52:34;;;;;;;20.88;13.07;;;2.30;99.90;;;;;;5055582;28;20116;-38
2023/01/23 05:55:00;;;;;;;21.17;13.88;;;2.30;99.90;;;;;;5058204;28;20039;-38
2023/01/23 05:57:26;;;;;;;20.02;13.15;;;2.40;99.90;;;;;;5055719;28;20037;-37
2023/01/23 05:59:52;;;;;;;19.40;13.15;;;2.30;99.90;;;;;;5054802;28;20068;-39
2023/01/23 06:02:17;;;;;;;22.45;13.57;;;2.30;99.90;;;;;;5054493;28;20242;-38
2023/01/23 06:04:46;;;;;;;22.70;13.65;;;2.30;99.90;;;;;;5056601;28;20040;-40
2023/01/23 06:07:13;;;;;;;19.80;13.07;;;2.30;99.90;;;;;;5073269;28;20041;-40
2023/01/23 06:09:40;;;;;;;22.58;14.93;;;2.30;99.90;;;;;;5056105;28;20040;-42
2023/01/23 06:12:06;;;;;;;21.83;15.30;;;2.30;99.90;;;;;;5060333;28;20036;-39
2023/01/23 06:14:32;;;;;;;23.25;14.32;;;2.30;99.90;;;;;;5062298;28;20481;-38
2023/01/23 06:16:58;;;;;;;21.38;13.82;;;2.30;99.90;;;;;;5058780;28;20041;-41
2023/01/23 06:19:23;;;;;;;19.45;12.88;;;2.30;99.90;;;;;;5055266;28;20137;-40
2023/01/23 06:21:49;;;;;;;19.38;13.00;;;2.30;99.90;;;;;;5053782;28;20397;-41
2023/01/23 06:24:15;;;;;;;18.95;13.80;;;2.30;99.90;;;;;;5051947;28;20440;-39
2023/01/23 06:26:41;;;;;;;19.90;13.02;;;2.30;99.90;;;;;;5052052;28;20086;-41
2023/01/23 06:29:06;;;;;;;20.73;13.43;;;2.30;99.90;;;;;;5054999;28;20041;-40
2023/01/23 06:31:32;;;;;;;20.48;12.90;;;2.30;99.90;;;;;;5061740;28;20111;-40
2023/01/23 06:33:58;;;;;;;21.58;13.05;;;2.30;99.90;;;;;;5054582;28;20120;-40
2023/01/23 06:36:25;;;;;;;22.10;12.57;;;2.30;99.90;;;;;;5058658;28;20469;-40
2023/01/23 06:38:51;;;;;;;19.75;13.77;;;2.30;99.90;;;;;;5052152;28;20067;-40
2023/01/23 06:41:17;;;;;;;22.08;13.60;;;2.30;99.90;;;;;;5054538;28;20381;-40
2023/01/23 06:43:43;;;;;;;20.48;13.65;;;2.30;99.90;;;;;;5048671;28;20468;-40
2023/01/23 06:46:10;;;;;;;22.13;13.68;;;2.20;99.90;;;;;;5052955;28;20112;-41
2023/01/23 06:48:36;;;;;;;21.75;13.35;;;2.30;99.90;;;;;;5053156;28;20497;-41
2023/01/23 06:51:03;;;;;;;19.48;12.73;;;2.30;99.90;;;;;;5052823;28;20127;-39
2023/01/23 06:53:29;;;;;;;18.52;12.95;;;2.30;99.90;;;;;;5054022;28;20044;-41
2023/01/23 06:56:01;;;;;;;22.30;13.35;;;2.30;99.90;;;;;;5053469;28;20541;-40
2023/01/23 06:58:28;;;;;;;23.02;13.63;;;2.20;99.90;;;;;;5055030;28;20033;-40
2023/01/23 07:00:54;;;;;;;23.35;14.13;;;2.30;99.90;;;;;;5054222;28;20044;-40
2023/01/23 07:03:19;;;;;;;21.02;13.40;;;2.30;99.90;;;;;;5061049;28;20047;-40
2023/01/23 07:05:45;;;;;;;22.50;14.95;;;2.30;99.90;;;;;;5054250;28;20036;-39
2023/01/23 07:08:11;;;;;;;24.08;13.90;;;2.30;99.90;;;;;;5057116;28;20615;-40
2023/01/23 07:10:37;;;;;;;23.38;14.57;;;2.30;99.90;;;;;;5054224;28;20029;-41
2023/01/23 07:13:07;;;;;;;23.92;15.00;;;2.20;99.90;;;;;;5054365;28;20050;-41
2023/01/23 07:15:34;;;;;;;25.15;15.75;;;2.30;99.90;;;;;;5054306;28;20033;-40
2023/01/23 07:18:00;;;;;;;20.08;14.25;;;2.30;99.90;;;;;;5055499;28;20098;-40
2023/01/23 07:20:27;;;;;;;20.92;14.27;;;2.30;99.90;;;;;;5056853;28;20036;-40
2023/01/23 07:22:56;;;;;;;24.25;15.10;;;2.30;99.90;;;;;;5079660;28;20044;-40
2023/01/23 07:25:24;;;;;;;21.88;15.50;;;2.20;99.90;;;;;;5053903;28;20043;-39
2023/01/23 07:27:50;;;;;;;23.10;14.38;;;2.30;99.90;;;;;;5055977;28;20560;-41
2023/01/23 07:30:16;;;;;;;22.92;14.65;;;2.20;99.90;;;;;;5052002;28;20032;-41
2023/01/23 07:32:42;;;;;;;22.85;14.32;;;2.30;99.90;;;;;;5054497;28;20119;-39
2023/01/23 07:35:09;;;;;;;24.48;14.43;;;2.30;99.90;;;;;;5060525;28;20044;-40
2023/01/23 07:37:35;;;;;;;23.27;13.88;;;2.30;99.90;;;;;;5036193;28;20113;-42
2023/01/23 07:40:01;;;;;;;21.02;13.38;;;2.30;99.90;;;;;;5050566;28;20041;-40
2023/01/23 07:42:26;;;;;;;22.20;14.48;;;2.20;99.90;;;;;;5052637;28;20378;-39
2023/01/23 07:44:52;;;;;;;21.17;14.18;;;2.30;99.90;;;;;;5054105;28;20047;-39
2023/01/23 07:47:18;;;;;;;22.30;13.65;;;2.30;99.90;;;;;;5040500;28;20193;-42
2023/01/23 07:49:44;;;;;;;23.98;13.93;;;2.30;99.90;;;;;;5054675;28;20047;-40
2023/01/23 07:52:10;;;;;;;23.58;14.18;;;2.30;99.90;;;;;;5052880;28;20552;-41
2023/01/23 07:54:36;;;;;;;23.63;13.65;;;2.30;99.90;;;;;;5053434;28;20044;-39
2023/01/23 07:57:01;;;;;;;23.92;13.95;;;2.30;99.90;;;;;;5053577;28;20032;-40
2023/01/23 07:59:27;;;;;;;22.65;13.88;;;2.30;99.90;;;;;;5037550;28;20139;-40
2023/01/23 08:01:53;;;;;;;22.58;14.40;;;2.30;99.90;;;;;;5049932;28;20028;-40
2023/01/23 08:04:19;;;;;;;22.10;13.95;;;2.30;99.90;;;;;;5054417;28;20119;-40
2023/01/23 08:06:45;;;;;;;20.60;13.98;;;2.30;99.90;;;;;;5054786;28;20039;-40
2023/01/23 08:09:11;;;;;;;23.10;14.35;;;2.30;99.90;;;;;;5055764;28;20028;-40
2023/01/23 08:11:38;;;;;;;22.95;14.20;;;2.40;99.90;;;;;;5054552;28;20546;-40
2023/01/23 08:14:03;;;;;;;24.75;14.45;;;2.40;99.90;;;;;;5060899;28;20481;-42
2023/01/23 08:16:29;;;;;;;21.80;14.00;;;2.40;99.90;;;;;;5053790;28;20092;-40
2023/01/23 08:18:55;;;;;;;21.08;13.73;;;2.40;99.90;;;;;;5052910;28;20444;-40
2023/01/23 08:21:21;;;;;;;23.55;14.32;;;2.40;99.90;;;;;;5070315;28;20039;-40
2023/01/23 08:23:47;;;;;;;24.73;14.52;;;2.40;99.90;;;;;;5053033;28;20033;-39
2023/01/23 08:26:15;;;;;;;21.40;13.48;;;2.40;99.90;;;;;;5053526;28;20040;-40
2023/01/23 08:28:42;;;;;;;22.42;14.10;;;2.50;99.90;;;;;;5053209;28;20064;-39
2023/01/23 08:31:10;;;;;;;22.30;14.00;;;2.50;99.90;;;;;;5052802;28;20090;-40
2023/01/23 08:33:36;;;;;;;20.00;13.45;;;2.50;99.90;;;;;;5055675;28;20040;-40
2023/01/23 08:36:05;;;;;;;23.45;13.68;;;2.50;99.90;;;;;;5058470;28;20102;-40
2023/01/23 08:38:31;;;;;;;21.27;13.93;;;2.60;99.90;;;;;;5055636;28;20141;-40
2023/01/23 08:41:01;;;;;;;20.17;13.85;;;2.60;99.90;;;;;;5055067;28;20051;-40
2023/01/23 08:43:27;;;;;;;22.38;13.98;;;2.60;99.90;;;;;;5057279;28;20501;-41
2023/01/23 08:45:55;;;;;;;21.33;13.02;;;2.60;99.90;;;;;;5056911;28;20102;-40
2023/01/23 08:48:22;;;;;;;20.85;13.70;;;2.70;99.90;;;;;;5056531;28;20028;-40
2023/01/23 08:50:49;;;;;;;21.38;13.95;;;2.70;99.90;;;;;;5058306;28;20070;-40
2023/01/23 08:53:15;;;;;;;23.88;15.30;;;2.70;99.90;;;;;;5056006;28;20549;-41
2023/01/23 08:55:41;;;;;;;21.15;14.27;;;2.70;99.90;;;;;;5054793;28;20393;-40
2023/01/23 08:58:09;;;;;;;20.48;13.93;;;2.80;99.90;;;;;;5057829;28;20024;-39
2023/01/23 09:00:35;;;;;;;18.95;13.20;;;2.80;99.90;;;;;;5055321;28;20497;-40
2023/01/23 09:03:02;;;;;;;19.63;13.80;;;2.80;99.90;;;;;;5058848;28;20039;-40
2023/01/23 09:05:28;;;;;;;19.80;13.38;;;2.80;99.90;;;;;;5057070;28;20118;-40
2023/01/23 09:07:58;;;;;;;24.92;14.60;;;2.90;99.90;;;;;;5058518;28;20397;-40
2023/01/23 09:10:24;;;;;;;19.05;14.10;;;2.90;99.90;;;;;;5056524;28;20115;-40
2023/01/23 09:12:51;;;;;;;19.08;13.30;;;3.00;99.90;;;;;;5055529;28;20039;-39
2023/01/23 09:15:17;;;;;;;17.95;12.00;;;3.00;99.90;;;;;;5056119;28;20078;-39
2023/01/23 09:17:43;;;;;;;20.23;12.48;;;3.00;99.90;;;;;;5058171;28;20520;-40
2023/01/23 09:20:09;;;;;;;18.13;12.05;;;3.00;99.90;;;;;;5055993;28;20076;-40
2023/01/23 09:22:36;;;;;;;18.17;11.95;;;3.10;99.90;;;;;;5057272;28;20119;-40
2023/01/23 09:25:02;;;;;;;16.15;11.90;;;3.10;99.90;;;;;;5077941;28;20040;-39
2023/01/23 09:27:28;;;;;;;14.10;10.23;;;3.10;99.90;;;;;;5059111;28;20067;-39
2023/01/23 09:29:54;;;;;;;15.82;11.00;;;3.10;99.90;;;;;;5062128;28;20078;-40
2023/01/23 09:32:20;;;;;;;17.50;11.70;;;3.10;99.90;;;;;;5074907;28;20113;-41
2023/01/23 09:34:49;;;;;;;17.90;11.23;;;3.10;99.90;;;;;;5071400;28;20115;-40
2023/01/23 09:37:15;;;;;;;16.10;11.15;;;3.20;99.90;;;;;;5059479;28;20475;-40
2023/01/23 09:39:42;;;;;;;16.30;11.30;;;3.20;99.90;;;;;;5058089;28;20047;-41
2023/01/23 09:42:16;;;;;;;18.52;11.88;;;3.20;99.90;;;;;;5057844;28;20051;-43
2023/01/23 09:44:46;;;;;;;16.25;11.95;;;3.20;99.90;;;;;;5076554;28;20141;-43
2023/01/23 09:47:26;;;;;;;17.60;11.77;;;3.20;99.90;;;;;;5059615;28;20382;-40
2023/01/23 09:50:02;;;;;;;16.33;11.65;;;3.20;99.90;;;;;;5053918;28;20493;-40
2023/01/23 09:52:34;;;;;;;18.05;11.90;;;3.30;99.90;;;;;;5056477;28;20539;-40
2023/01/23 09:55:24;;;;;;;16.95;11.23;;;3.30;99.90;;;;;;5060337;28;20481;-40
2023/01/23 09:57:59;;;;;;;15.77;10.80;;;3.30;99.90;;;;;;5074267;28;20512;-41
2023/01/23 10:00:28;;;;;;;13.88;10.23;;;3.30;99.90;;;;;;5058077;28;20097;-40
2023/01/23 10:02:55;;;;;;;13.18;10.00;;;3.40;99.90;;;;;;5056371;28;20078;-40
2023/01/23 10:05:30;;;;;;;13.93;10.27;;;3.30;99.90;;;;;;5058187;28;20048;-40
2023/01/23 10:07:56;;;;;;;15.98;10.27;;;3.30;99.90;;;;;;5075548;28;20040;-35
2023/01/23 10:10:37;;;;;;;15.98;10.73;;;3.40;99.90;;;;;;5062229;28;20064;-36
2023/01/23 10:13:22;;;;;;;17.05;10.88;;;3.40;99.90;;;;;;5060117;28;20041;-36
2023/01/23 10:16:26;;;;;;;18.77;11.30;;;3.40;99.90;;;;;;5062567;28;20103;-36
2023/01/23 10:19:29;;;;;;;15.07;10.50;;;3.50;99.90;;;;;;5075185;28;20056;-35
2023/01/23 10:22:14;;;;;;;12.63;10.32;;;3.50;99.90;;;;;;5056855;28;20047;-36
2023/01/23 10:24:51;;;;;;;12.95;10.02;;;3.50;99.90;;;;;;5040378;28;20044;-35
2023/01/23 10:27:23;;;;;;;13.65;10.00;;;3.50;99.90;;;;;;5069047;28;20491;-36
2023/01/23 10:30:18;;;;;;;13.95;10.75;;;3.50;99.90;;;;;;5056929;28;20090;-36
2023/01/23 10:32:55;;;;;;;13.55;10.05;;;3.50;99.90;;;;;;5074276;28;20056;-36
2023/01/23 10:35:46;;;;;;;13.52;10.10;;;3.60;99.90;;;;;;5075281;28;20439;-36
2023/01/23 10:38:24;;;;;;;14.30;11.02;;;3.60;99.90;;;;;;5073667;28;20043;-36
2023/01/23 10:43:36;;;;;;;15.80;11.52;;;3.60;99.90;;;;;;5075184;28;20047;-36
2023/01/23 10:46:15;;;;;;;15.05;11.23;;;3.60;99.90;;;;;;5064714;28;20041;-36
2023/01/23 10:48:42;;;;;;;15.57;10.80;;;3.60;99.90;;;;;;5043365;28;20033;-36
2023/01/23 10:51:37;;;;;;;14.38;9.85;;;3.60;99.90;;;;;;5056451;28;20451;-36
2023/01/23 10:54:20;;;;;;;14.63;10.30;;;3.60;99.90;;;;;;5074464;28;20097;-36
2023/01/23 10:57:06;;;;;;;16.15;11.27;;;3.60;99.90;;;;;;5055594;28;20033;-36
2023/01/23 10:59:52;;;;;;;14.48;10.85;;;3.60;99.90;;;;;;5065731;28;20040;-35
2023/01/23 11:02:28;;;;;;;13.43;10.55;;;3.70;99.90;;;;;;5055150;28;20048;-36
2023/01/23 11:04:54;;;;;;;17.25;11.20;;;3.70;99.90;;;;;;5046328;28;20533;-36
2023/01/23 11:07:28;;;;;;;15.90;10.45;;;3.70;99.90;;;;;;5070202;28;20072;-36
2023/01/23 11:09:58;;;;;;;15.15;10.20;;;3.70;99.90;;;;;;5055934;28;20037;-36
2023/01/23 11:12:28;;;;;;;14.70;10.88;;;3.70;99.90;;;;;;5039414;28;20048;-36
2023/01/23 11:15:23;;;;;;;13.57;11.02;;;3.80;99.90;;;;;;5073478;28;20068;-35
2023/01/23 11:17:51;;;;;;;12.70;9.30;;;4.00;99.90;;;;;;5042261;28;20487;-36
2023/01/23 11:20:23;;;;;;;14.05;10.35;;;4.10;99.90;;;;;;5073853;28;20112;-36
2023/01/23 11:23:04;;;;;;;14.10;10.00;;;4.20;99.90;;;;;;5036205;28;20041;-37
2023/01/23 11:25:37;;;;;;;14.30;10.40;;;4.20;99.90;;;;;;5070540;28;20071;-36
2023/01/23 11:28:17;;;;;;;12.18;10.25;;;4.30;99.90;;;;;;5056720;28;20062;-36
2023/01/23 11:30:49;;;;;;;13.13;9.60;;;4.30;99.90;;;;;;5046473;28;20031;-36
2023/01/23 11:33:24;;;;;;;15.27;10.25;;;4.40;99.90;;;;;;5073796;28;20033;-36
2023/01/23 11:36:30;;;;;;;15.55;10.68;;;4.40;99.90;;;;;;5055601;28;20040;-35
2023/01/23 11:39:17;;;;;;;14.20;9.85;;;4.50;99.90;;;;;;5073282;28;20037;-37
2023/01/23 11:41:45;;;;;;;15.52;10.20;;;4.60;99.90;;;;;;5056006;28;20393;-36
2023/01/23 11:44:17;;;;;;;14.43;11.18;;;4.60;99.90;;;;;;5061184;28;20039;-36
2023/01/23 11:47:20;;;;;;;15.48;11.32;;;4.60;99.90;;;;;;5051339;28;20072;-36
2023/01/23 11:50:06;;;;;;;16.73;11.35;;;4.60;99.90;;;;;;5055821;28;20493;-35
2023/01/23 11:52:32;;;;;;;15.55;11.27;;;4.60;99.90;;;;;;5057161;28;20044;-36
2023/01/23 11:55:19;;;;;;;15.18;10.27;;;4.60;99.90;;;;;;5091004;28;20047;-36
2023/01/23 11:57:59;;;;;;;18.08;10.98;;;4.60;99.90;;;;;;5080683;28;20370;-36
2023/01/23 12:00:44;;;;;;;14.90;10.00;;;4.60;99.90;;;;;;5064384;28;20047;-36
2023/01/23 12:03:33;;;;;;;14.23;10.95;;;4.50;99.90;;;;;;5073244;28;20151;-35
2023/01/23 12:06:21;;;;;;;14.73;10.32;;;4.50;99.90;;;;;;5058389;28;20040;-36
2023/01/23 12:09:16;;;;;;;12.75;10.55;;;4.50;99.90;;;;;;5058081;28;20090;-35
2023/01/23 12:12:10;;;;;;;14.23;11.18;;;4.50;99.90;;;;;;5059895;28;20036;-36
2023/01/23 12:15:00;;;;;;;16.40;10.10;;;4.50;99.90;;;;;;5070752;28;20028;-35
2023/01/23 12:17:35;;;;;;;14.40;10.18;;;4.50;99.90;;;;;;5072937;28;20271;-36
2023/01/23 12:20:04;;;;;;;12.68;9.95;;;4.50;99.90;;;;;;5076199;28;20051;-36
2023/01/23 12:22:41;;;;;;;14.02;10.40;;;4.50;99.90;;;;;;5056363;28;20115;-36
2023/01/23 12:25:32;;;;;;;12.65;9.93;;;4.50;99.90;;;;;;5060614;28;20044;-35
2023/01/23 12:28:20;;;;;;;13.98;10.13;;;4.50;99.90;;;;;;5081780;28;20072;-35
2023/01/23 12:31:01;;;;;;;11.70;9.32;;;4.60;99.90;;;;;;5081312;28;20464;-35
2023/01/23 12:33:50;;;;;;;14.23;10.73;;;4.60;99.90;;;;;;5069140;28;20072;-35
2023/01/23 12:36:41;;;;;;;13.45;10.45;;;4.60;99.90;;;;;;5073354;28;20049;-35
2023/01/23 12:39:53;;;;;;;15.50;10.20;;;4.60;99.90;;;;;;5057024;28;20041;-35
2023/01/23 12:42:46;;;;;;;13.55;10.52;;;4.60;99.90;;;;;;4989590;28;20511;-35
2023/01/23 12:45:15;;;;;;;15.95;11.13;;;4.60;99.90;;;;;;4987910;28;20041;-35
2023/01/23 12:48:11;;;;;;;14.18;10.88;;;4.70;99.90;;;;;;5044871;28;20053;-36
2023/01/23 12:50:46;;;;;;;16.02;10.75;;;4.80;99.90;;;;;;5053716;28;20083;-35
2023/01/23 12:53:21;;;;;;;13.38;10.50;;;4.80;99.90;;;;;;5063160;28;20063;-36
2023/01/23 12:56:14;;;;;;;14.32;9.45;;;4.80;99.90;;;;;;5067711;28;20036;-36
2023/01/23 12:58:44;;;;;;;17.23;10.68;;;4.80;99.90;;;;;;5074984;28;20107;-36
2023/01/23 13:01:30;;;;;;;11.93;9.38;;;4.80;99.90;;;;;;5068052;28;20040;-37
2023/01/23 13:04:03;;;;;;;12.48;9.38;;;4.80;99.90;;;;;;5058229;28;20515;-35
2023/01/23 13:06:44;;;;;;;16.27;10.48;;;4.70;99.90;;;;;;5055240;28;20457;-36